sensor_id;sensor_type;location;lat;lon;timestamp;pressure;altitude;pressure_sealevel;temperature;humidity
59315;BME280;46521;50.160;20.802;2022-11-13T00:07:19;101318.06;;;7.39;76.96
59315;BME280;46521;50.160;20.802;2022-11-13T00:17:20;101308.47;;;7.38;77.05
59315;BME280;46521;50.160;20.802;2022-11-13T00:27:22;101299.02;;;7.35;76.77
59315;BME280;46521;50.160;20.802;2022-11-13T00:37:23;101299.44;;;7.29;77.09
59315;BME280;46521;50.160;20.802;2022-11-13T00:47:25;101297.95;;;7.25;77.14
59315;BME280;46521;50.160;20.802;2022-11-13T00:57:26;101282.38;;;7.22;77.00
59315;BME280;46521;50.160;20.802;2022-11-13T01:07:28;101283.24;;;7.23;76.93
59315;BME280;46521;50.160;20.802;2022-11-13T01:17:29;101285.53;;;7.27;76.69
59315;BME280;46521;50.160;20.802;2022-11-13T01:27:31;101279.53;;;7.25;77.73
59315;BME280;46521;50.160;20.802;2022-11-13T01:37:32;101271.22;;;7.31;77.01
59315;BME280;46521;50.160;20.802;2022-11-13T01:47:34;101268.88;;;7.39;77.27
59315;BME280;46521;50.160;20.802;2022-11-13T01:57:36;101247.61;;;7.43;77.53
59315;BME280;46521;50.160;20.802;2022-11-13T02:07:38;101251.00;;;7.45;77.47
59315;BME280;46521;50.160;20.802;2022-11-13T08:27:09;101263.67;;;6.88;78.24
59315;BME280;46521;50.160;20.802;2022-11-13T08:37:10;101268.48;;;6.94;79.02
59315;BME280;46521;50.160;20.802;2022-11-13T08:47:12;101273.64;;;6.96;78.01
59315;BME280;46521;50.160;20.802;2022-11-13T08:57:13;101280.28;;;7.01;78.40
59315;BME280;46521;50.160;20.802;2022-11-13T09:07:15;101280.48;;;7.11;77.83
59315;BME280;46521;50.160;20.802;2022-11-13T09:17:16;101275.88;;;7.15;78.69
59315;BME280;46521;50.160;20.802;2022-11-13T09:27:18;101270.83;;;7.12;77.87
59315;BME280;46521;50.160;20.802;2022-11-13T09:37:19;101267.64;;;7.07;78.18
59315;BME280;46521;50.160;20.802;2022-11-13T09:47:24;101257.75;;;6.97;77.97
59315;BME280;46521;50.160;20.802;2022-11-13T09:57:49;101249.76;;;6.99;78.04
59315;BME280;46521;50.160;20.802;2022-11-13T10:08:15;101241.34;;;7.07;78.14
59315;BME280;46521;50.160;20.802;2022-11-13T10:18:22;101232.72;;;7.04;78.62
59315;BME280;46521;50.160;20.802;2022-11-13T10:28:27;101237.16;;;7.04;78.37
59315;BME280;46521;50.160;20.802;2022-11-13T10:38:34;101215.68;;;7.10;78.34
59315;BME280;46521;50.160;20.802;2022-11-13T10:48:37;101204.84;;;7.15;77.84
59315;BME280;46521;50.160;20.802;2022-11-13T10:58:38;101208.91;;;7.19;78.05
59315;BME280;46521;50.160;20.802;2022-11-13T11:08:40;101202.39;;;7.25;77.70
59315;BME280;46521;50.160;20.802;2022-11-13T11:18:48;101204.70;;;7.29;77.58
59315;BME280;46521;50.160;20.802;2022-11-13T11:28:58;101192.66;;;7.38;77.66
59315;BME280;46521;50.160;20.802;2022-11-13T11:39:13;101187.49;;;7.49;78.19
59315;BME280;46521;50.160;20.802;2022-11-13T11:49:21;101182.61;;;7.56;78.16
59315;BME280;46521;50.160;20.802;2022-11-13T11:59:49;101171.86;;;7.59;77.90
59315;BME280;46521;50.160;20.802;2022-11-13T12:20:56;101151.30;;;7.64;77.26
59315;BME280;46521;50.160;20.802;2022-11-13T12:41:45;101123.38;;;7.62;77.79
59315;BME280;46521;50.160;20.802;2022-11-13T12:51:55;101116.84;;;7.67;77.68
59315;BME280;46521;50.160;20.802;2022-11-13T13:02:02;101115.89;;;7.68;77.88
59315;BME280;46521;50.160;20.802;2022-11-13T13:22:34;101094.83;;;7.68;77.69
59315;BME280;46521;50.160;20.802;2022-11-13T13:32:54;101095.32;;;7.73;76.85
59315;BME280;46521;50.160;20.802;2022-11-13T13:43:05;101091.97;;;7.71;77.53
59315;BME280;46521;50.160;20.802;2022-11-13T13:53:13;101081.78;;;7.67;76.70
59315;BME280;46521;50.160;20.802;2022-11-13T14:03:20;101065.57;;;7.60;77.63
59315;BME280;46521;50.160;20.802;2022-11-13T14:13:23;101059.59;;;7.58;77.27
59315;BME280;46521;50.160;20.802;2022-11-13T14:23:28;101072.15;;;7.54;77.40
59315;BME280;46521;50.160;20.802;2022-11-13T14:33:40;101071.55;;;7.51;77.71
59315;BME280;46521;50.160;20.802;2022-11-13T14:43:48;101055.98;;;7.48;76.70
59315;BME280;46521;50.160;20.802;2022-11-13T14:54:02;101054.52;;;7.44;76.94
59315;BME280;46521;50.160;20.802;2022-11-13T15:04:05;101048.98;;;7.35;76.93
59315;BME280;46521;50.160;20.802;2022-11-13T15:14:16;101048.56;;;7.29;77.11
59315;BME280;46521;50.160;20.802;2022-11-13T15:24:18;101043.53;;;7.26;77.13
59315;BME280;46521;50.160;20.802;2022-11-13T15:34:20;101040.18;;;7.24;77.17
59315;BME280;46521;50.160;20.802;2022-11-13T15:44:21;101038.63;;;7.21;77.65
59315;BME280;46521;50.160;20.802;2022-11-13T15:54:30;101041.93;;;7.12;76.60
59315;BME280;46521;50.160;20.802;2022-11-13T16:04:32;101052.14;;;7.03;77.24
59315;BME280;46521;50.160;20.802;2022-11-13T16:14:33;101055.22;;;6.97;76.77
59315;BME280;46521;50.160;20.802;2022-11-13T16:24:35;101061.88;;;6.90;77.22
59315;BME280;46521;50.160;20.802;2022-11-13T16:34:36;101057.27;;;6.81;77.26
59315;BME280;46521;50.160;20.802;2022-11-13T16:44:40;101045.72;;;6.71;76.99
59315;BME280;46521;50.160;20.802;2022-11-13T16:54:41;101045.72;;;6.71;77.88
59315;BME280;46521;50.160;20.802;2022-11-13T17:04:43;101047.19;;;6.75;78.09
59315;BME280;46521;50.160;20.802;2022-11-13T17:14:44;101051.30;;;6.79;77.67
59315;BME280;46521;50.160;20.802;2022-11-13T17:24:46;101041.72;;;6.78;77.08
59315;BME280;46521;50.160;20.802;2022-11-13T17:34:49;101030.70;;;6.73;77.77
59315;BME280;46521;50.160;20.802;2022-11-13T17:44:51;101027.64;;;6.66;77.66
59315;BME280;46521;50.160;20.802;2022-11-13T17:54:52;101030.59;;;6.61;77.65
59315;BME280;46521;50.160;20.802;2022-11-13T18:04:54;101023.56;;;6.62;78.11
59315;BME280;46521;50.160;20.802;2022-11-13T18:14:58;101018.20;;;6.63;78.13
59315;BME280;46521;50.160;20.802;2022-11-13T18:24:59;101012.73;;;6.66;78.17
59315;BME280;46521;50.160;20.802;2022-11-13T18:35:03;101015.86;;;6.72;77.91
59315;BME280;46521;50.160;20.802;2022-11-13T18:45:05;101021.95;;;6.72;77.79
59315;BME280;46521;50.160;20.802;2022-11-13T18:55:07;101025.88;;;6.66;78.54
59315;BME280;46521;50.160;20.802;2022-11-13T19:05:09;101009.81;;;6.58;78.48
59315;BME280;46521;50.160;20.802;2022-11-13T19:15:11;101025.91;;;6.54;77.40
59315;BME280;46521;50.160;20.802;2022-11-13T19:25:12;101021.48;;;6.54;77.71
59315;BME280;46521;50.160;20.802;2022-11-13T19:35:25;101001.17;;;6.56;77.74
59315;BME280;46521;50.160;20.802;2022-11-13T19:45:26;101003.08;;;6.54;77.94
59315;BME280;46521;50.160;20.802;2022-11-13T19:55:29;101003.30;;;6.51;78.15
59315;BME280;46521;50.160;20.802;2022-11-13T20:05:31;100998.36;;;6.46;77.95
59315;BME280;46521;50.160;20.802;2022-11-13T20:15:32;100993.21;;;6.45;78.04
59315;BME280;46521;50.160;20.802;2022-11-13T20:25:33;100994.37;;;6.41;78.88
59315;BME280;46521;50.160;20.802;2022-11-13T20:35:35;101003.33;;;6.38;78.18
59315;BME280;46521;50.160;20.802;2022-11-13T20:45:36;100998.39;;;6.34;78.20
59315;BME280;46521;50.160;20.802;2022-11-13T20:55:38;100980.83;;;6.34;78.27
59315;BME280;46521;50.160;20.802;2022-11-13T21:05:41;100981.66;;;6.35;78.35
59315;BME280;46521;50.160;20.802;2022-11-13T21:15:42;100978.81;;;6.38;78.13
59315;BME280;46521;50.160;20.802;2022-11-13T21:25:44;100980.83;;;6.34;78.28
59315;BME280;46521;50.160;20.802;2022-11-13T21:35:45;100977.16;;;6.37;78.41
59315;BME280;46521;50.160;20.802;2022-11-13T21:45:47;100963.80;;;6.40;78.72
59315;BME280;46521;50.160;20.802;2022-11-13T21:55:49;100969.05;;;6.40;78.23
59315;BME280;46521;50.160;20.802;2022-11-13T22:05:50;100967.37;;;6.39;78.97
59315;BME280;46521;50.160;20.802;2022-11-13T22:15:52;100967.80;;;6.33;78.20
59315;BME280;46521;50.160;20.802;2022-11-13T22:26:01;100955.38;;;6.35;78.80
59315;BME280;46521;50.160;20.802;2022-11-13T22:36:09;100935.33;;;6.34;78.69
59315;BME280;46521;50.160;20.802;2022-11-13T22:46:13;100934.80;;;6.28;78.66
59315;BME280;46521;50.160;20.802;2022-11-13T22:56:15;100939.11;;;6.29;78.67
59315;BME280;46521;50.160;20.802;2022-11-13T23:06:20;100936.48;;;6.29;78.57
59315;BME280;46521;50.160;20.802;2022-11-13T23:16:24;100936.91;;;6.23;78.66
59315;BME280;46521;50.160;20.802;2022-11-13T23:26:26;100938.09;;;6.19;79.16
59315;BME280;46521;50.160;20.802;2022-11-13T23:36:28;100929.57;;;6.16;79.26
